sensor_id;sensor_type;location;lat;lon;timestamp;P1;durP1;ratioP1;P2;durP2;ratioP2
24223;SDS011;12359;49.716;9.212;2023-11-19T00:02:18;0.20;;;0.20;;
24223;SDS011;12359;49.716;9.212;2023-11-19T00:04:44;0.20;;;0.20;;
24223;SDS011;12359;49.716;9.212;2023-11-19T00:07:10;0.20;;;0.20;;
24223;SDS011;12359;49.716;9.212;2023-11-19T00:09:38;0.13;;;0.13;;
24223;SDS011;12359;49.716;9.212;2023-11-19T00:12:04;0.20;;;0.20;;
24223;SDS011;12359;49.716;9.212;2023-11-19T00:14:31;0.20;;;0.20;;
24223;SDS011;12359;49.716;9.212;2023-11-19T00:16:57;0.20;;;0.20;;
24223;SDS011;12359;49.716;9.212;2023-11-19T00:19:24;0.10;;;0.10;;
24223;SDS011;12359;49.716;9.212;2023-11-19T00:21:51;0.20;;;0.20;;
24223;SDS011;12359;49.716;9.212;2023-11-19T00:24:17;0.20;;;0.20;;
24223;SDS011;12359;49.716;9.212;2023-11-19T00:26:43;0.10;;;0.10;;
24223;SDS011;12359;49.716;9.212;2023-11-19T00:29:09;0.20;;;0.20;;
24223;SDS011;12359;49.716;9.212;2023-11-19T00:31:35;0.17;;;0.17;;
24223;SDS011;12359;49.716;9.212;2023-11-19T00:34:01;0.10;;;0.10;;
24223;SDS011;12359;49.716;9.212;2023-11-19T00:36:27;0.20;;;0.20;;
24223;SDS011;12359;49.716;9.212;2023-11-19T00:38:53;0.20;;;0.20;;
24223;SDS011;12359;49.716;9.212;2023-11-19T00:41:19;0.20;;;0.20;;
24223;SDS011;12359;49.716;9.212;2023-11-19T00:43:45;0.20;;;0.20;;
24223;SDS011;12359;49.716;9.212;2023-11-19T00:46:10;0.17;;;0.17;;
24223;SDS011;12359;49.716;9.212;2023-11-19T00:48:36;0.20;;;0.20;;
24223;SDS011;12359;49.716;9.212;2023-11-19T00:51:02;0.20;;;0.20;;
24223;SDS011;12359;49.716;9.212;2023-11-19T00:53:31;0.20;;;0.20;;
24223;SDS011;12359;49.716;9.212;2023-11-19T00:55:59;0.20;;;0.20;;
24223;SDS011;12359;49.716;9.212;2023-11-19T00:58:25;0.20;;;0.20;;
24223;SDS011;12359;49.716;9.212;2023-11-19T01:00:51;0.20;;;0.20;;
24223;SDS011;12359;49.716;9.212;2023-11-19T01:03:16;0.20;;;0.20;;
24223;SDS011;12359;49.716;9.212;2023-11-19T01:05:42;0.20;;;0.20;;
24223;SDS011;12359;49.716;9.212;2023-11-19T01:08:09;0.13;;;0.13;;
24223;SDS011;12359;49.716;9.212;2023-11-19T01:10:36;0.20;;;0.20;;
24223;SDS011;12359;49.716;9.212;2023-11-19T01:13:02;0.10;;;0.10;;
24223;SDS011;12359;49.716;9.212;2023-11-19T01:15:31;0.20;;;0.20;;
24223;SDS011;12359;49.716;9.212;2023-11-19T01:17:57;0.20;;;0.20;;
24223;SDS011;12359;49.716;9.212;2023-11-19T01:20:23;0.20;;;0.20;;
24223;SDS011;12359;49.716;9.212;2023-11-19T01:22:49;0.20;;;0.20;;
24223;SDS011;12359;49.716;9.212;2023-11-19T01:25:16;0.13;;;0.13;;
24223;SDS011;12359;49.716;9.212;2023-11-19T01:27:41;0.20;;;0.20;;
24223;SDS011;12359;49.716;9.212;2023-11-19T01:30:07;0.20;;;0.20;;
24223;SDS011;12359;49.716;9.212;2023-11-19T01:32:38;0.20;;;0.20;;
24223;SDS011;12359;49.716;9.212;2023-11-19T01:35:05;0.20;;;0.20;;
24223;SDS011;12359;49.716;9.212;2023-11-19T01:37:31;0.20;;;0.20;;
24223;SDS011;12359;49.716;9.212;2023-11-19T01:39:57;0.20;;;0.20;;
24223;SDS011;12359;49.716;9.212;2023-11-19T01:42:23;0.20;;;0.20;;
24223;SDS011;12359;49.716;9.212;2023-11-19T01:44:58;0.20;;;0.20;;
24223;SDS011;12359;49.716;9.212;2023-11-19T01:47:25;0.13;;;0.13;;
24223;SDS011;12359;49.716;9.212;2023-11-19T01:49:55;0.10;;;0.10;;
24223;SDS011;12359;49.716;9.212;2023-11-19T01:52:21;0.10;;;0.10;;
24223;SDS011;12359;49.716;9.212;2023-11-19T01:54:48;0.10;;;0.10;;
24223;SDS011;12359;49.716;9.212;2023-11-19T01:57:15;0.10;;;0.10;;
24223;SDS011;12359;49.716;9.212;2023-11-19T01:59:41;0.20;;;0.20;;
24223;SDS011;12359;49.716;9.212;2023-11-19T02:02:07;0.20;;;0.20;;
24223;SDS011;12359;49.716;9.212;2023-11-19T02:04:33;0.20;;;0.20;;
24223;SDS011;12359;49.716;9.212;2023-11-19T02:07:00;0.20;;;0.20;;
24223;SDS011;12359;49.716;9.212;2023-11-19T02:09:25;0.10;;;0.10;;
24223;SDS011;12359;49.716;9.212;2023-11-19T02:11:52;0.20;;;0.20;;
24223;SDS011;12359;49.716;9.212;2023-11-19T02:14:19;0.20;;;0.20;;
24223;SDS011;12359;49.716;9.212;2023-11-19T02:16:51;0.15;;;0.15;;
24223;SDS011;12359;49.716;9.212;2023-11-19T02:19:20;0.20;;;0.20;;
24223;SDS011;12359;49.716;9.212;2023-11-19T02:21:45;0.20;;;0.20;;
24223;SDS011;12359;49.716;9.212;2023-11-19T02:24:12;0.20;;;0.20;;
24223;SDS011;12359;49.716;9.212;2023-11-19T02:26:47;0.10;;;0.10;;
24223;SDS011;12359;49.716;9.212;2023-11-19T02:29:23;0.20;;;0.20;;
24223;SDS011;12359;49.716;9.212;2023-11-19T02:31:48;0.20;;;0.20;;
24223;SDS011;12359;49.716;9.212;2023-11-19T02:34:14;0.10;;;0.10;;
24223;SDS011;12359;49.716;9.212;2023-11-19T02:36:41;0.20;;;0.20;;
24223;SDS011;12359;49.716;9.212;2023-11-19T02:39:07;0.20;;;0.20;;
24223;SDS011;12359;49.716;9.212;2023-11-19T02:41:36;0.10;;;0.10;;
24223;SDS011;12359;49.716;9.212;2023-11-19T02:44:04;0.10;;;0.10;;
24223;SDS011;12359;49.716;9.212;2023-11-19T02:46:31;0.10;;;0.10;;
24223;SDS011;12359;49.716;9.212;2023-11-19T02:48:57;0.20;;;0.20;;
24223;SDS011;12359;49.716;9.212;2023-11-19T02:51:22;0.10;;;0.10;;
24223;SDS011;12359;49.716;9.212;2023-11-19T02:53:48;0.20;;;0.20;;
24223;SDS011;12359;49.716;9.212;2023-11-19T02:56:14;0.20;;;0.20;;
24223;SDS011;12359;49.716;9.212;2023-11-19T02:58:45;0.20;;;0.20;;
24223;SDS011;12359;49.716;9.212;2023-11-19T03:01:11;0.13;;;0.13;;
24223;SDS011;12359;49.716;9.212;2023-11-19T03:03:49;0.20;;;0.20;;
24223;SDS011;12359;49.716;9.212;2023-11-19T03:06:19;0.20;;;0.20;;
24223;SDS011;12359;49.716;9.212;2023-11-19T03:08:46;0.20;;;0.20;;
24223;SDS011;12359;49.716;9.212;2023-11-19T03:11:13;0.10;;;0.10;;
24223;SDS011;12359;49.716;9.212;2023-11-19T03:13:39;0.20;;;0.20;;
24223;SDS011;12359;49.716;9.212;2023-11-19T03:16:04;0.20;;;0.20;;
24223;SDS011;12359;49.716;9.212;2023-11-19T03:18:30;0.20;;;0.20;;
24223;SDS011;12359;49.716;9.212;2023-11-19T03:20:56;0.20;;;0.20;;
24223;SDS011;12359;49.716;9.212;2023-11-19T03:23:23;0.17;;;0.17;;
24223;SDS011;12359;49.716;9.212;2023-11-19T03:25:50;0.20;;;0.20;;
24223;SDS011;12359;49.716;9.212;2023-11-19T03:28:15;0.20;;;0.20;;
24223;SDS011;12359;49.716;9.212;2023-11-19T03:30:41;0.20;;;0.20;;
24223;SDS011;12359;49.716;9.212;2023-11-19T03:33:07;0.20;;;0.20;;
24223;SDS011;12359;49.716;9.212;2023-11-19T03:35:33;0.20;;;0.20;;
24223;SDS011;12359;49.716;9.212;2023-11-19T03:37:58;0.10;;;0.10;;
24223;SDS011;12359;49.716;9.212;2023-11-19T03:40:24;0.20;;;0.20;;
24223;SDS011;12359;49.716;9.212;2023-11-19T03:42:50;0.10;;;0.10;;
24223;SDS011;12359;49.716;9.212;2023-11-19T03:45:16;0.20;;;0.20;;
24223;SDS011;12359;49.716;9.212;2023-11-19T03:47:41;0.20;;;0.20;;
24223;SDS011;12359;49.716;9.212;2023-11-19T03:50:07;0.10;;;0.10;;
24223;SDS011;12359;49.716;9.212;2023-11-19T03:52:34;0.20;;;0.20;;
24223;SDS011;12359;49.716;9.212;2023-11-19T03:55:00;0.10;;;0.10;;
24223;SDS011;12359;49.716;9.212;2023-11-19T03:57:27;0.20;;;0.20;;
24223;SDS011;12359;49.716;9.212;2023-11-19T03:59:53;0.20;;;0.20;;
24223;SDS011;12359;49.716;9.212;2023-11-19T04:02:20;0.20;;;0.20;;
24223;SDS011;12359;49.716;9.212;2023-11-19T04:04:46;0.10;;;0.10;;
24223;SDS011;12359;49.716;9.212;2023-11-19T04:07:13;0.10;;;0.10;;
24223;SDS011;12359;49.716;9.212;2023-11-19T04:09:38;0.10;;;0.10;;
24223;SDS011;12359;49.716;9.212;2023-11-19T04:12:04;0.20;;;0.20;;
24223;SDS011;12359;49.716;9.212;2023-11-19T04:14:30;0.10;;;0.10;;
24223;SDS011;12359;49.716;9.212;2023-11-19T04:16:56;0.17;;;0.17;;
24223;SDS011;12359;49.716;9.212;2023-11-19T04:19:22;0.20;;;0.20;;
24223;SDS011;12359;49.716;9.212;2023-11-19T04:21:47;0.20;;;0.20;;
24223;SDS011;12359;49.716;9.212;2023-11-19T04:24:13;0.20;;;0.20;;
24223;SDS011;12359;49.716;9.212;2023-11-19T04:26:40;0.20;;;0.20;;
24223;SDS011;12359;49.716;9.212;2023-11-19T04:29:13;0.20;;;0.20;;
24223;SDS011;12359;49.716;9.212;2023-11-19T04:31:40;0.20;;;0.20;;
24223;SDS011;12359;49.716;9.212;2023-11-19T04:34:06;0.17;;;0.17;;
24223;SDS011;12359;49.716;9.212;2023-11-19T04:36:32;0.20;;;0.20;;
24223;SDS011;12359;49.716;9.212;2023-11-19T04:38:58;0.20;;;0.20;;
24223;SDS011;12359;49.716;9.212;2023-11-19T04:41:27;0.20;;;0.20;;
24223;SDS011;12359;49.716;9.212;2023-11-19T04:43:53;0.20;;;0.20;;
24223;SDS011;12359;49.716;9.212;2023-11-19T04:46:19;0.20;;;0.20;;
24223;SDS011;12359;49.716;9.212;2023-11-19T04:48:45;0.20;;;0.20;;
24223;SDS011;12359;49.716;9.212;2023-11-19T04:51:11;0.20;;;0.20;;
24223;SDS011;12359;49.716;9.212;2023-11-19T04:53:36;0.10;;;0.10;;
24223;SDS011;12359;49.716;9.212;2023-11-19T04:56:08;0.20;;;0.20;;
24223;SDS011;12359;49.716;9.212;2023-11-19T04:58:35;0.20;;;0.20;;
24223;SDS011;12359;49.716;9.212;2023-11-19T05:01:03;0.20;;;0.20;;
24223;SDS011;12359;49.716;9.212;2023-11-19T05:03:30;0.20;;;0.20;;
24223;SDS011;12359;49.716;9.212;2023-11-19T05:05:56;0.10;;;0.10;;
24223;SDS011;12359;49.716;9.212;2023-11-19T05:08:22;0.20;;;0.20;;
24223;SDS011;12359;49.716;9.212;2023-11-19T05:10:48;0.10;;;0.10;;
24223;SDS011;12359;49.716;9.212;2023-11-19T05:13:14;0.20;;;0.20;;
24223;SDS011;12359;49.716;9.212;2023-11-19T05:15:40;0.20;;;0.20;;
24223;SDS011;12359;49.716;9.212;2023-11-19T05:18:06;0.20;;;0.20;;
24223;SDS011;12359;49.716;9.212;2023-11-19T05:20:32;0.20;;;0.20;;
24223;SDS011;12359;49.716;9.212;2023-11-19T05:22:58;0.20;;;0.20;;
24223;SDS011;12359;49.716;9.212;2023-11-19T05:25:25;0.20;;;0.20;;
24223;SDS011;12359;49.716;9.212;2023-11-19T05:27:54;0.10;;;0.10;;
24223;SDS011;12359;49.716;9.212;2023-11-19T05:30:20;0.10;;;0.10;;
24223;SDS011;12359;49.716;9.212;2023-11-19T05:32:46;0.20;;;0.20;;
24223;SDS011;12359;49.716;9.212;2023-11-19T05:35:12;0.20;;;0.20;;
24223;SDS011;12359;49.716;9.212;2023-11-19T05:37:37;0.20;;;0.20;;
24223;SDS011;12359;49.716;9.212;2023-11-19T05:40:03;0.10;;;0.10;;
24223;SDS011;12359;49.716;9.212;2023-11-19T05:42:37;0.10;;;0.10;;
24223;SDS011;12359;49.716;9.212;2023-11-19T05:45:03;0.20;;;0.20;;
24223;SDS011;12359;49.716;9.212;2023-11-19T05:47:28;0.10;;;0.10;;
24223;SDS011;12359;49.716;9.212;2023-11-19T05:49:54;0.10;;;0.10;;
24223;SDS011;12359;49.716;9.212;2023-11-19T05:52:20;0.20;;;0.20;;
24223;SDS011;12359;49.716;9.212;2023-11-19T05:54:47;0.10;;;0.10;;
24223;SDS011;12359;49.716;9.212;2023-11-19T05:57:16;0.10;;;0.10;;
24223;SDS011;12359;49.716;9.212;2023-11-19T05:59:47;0.10;;;0.10;;
24223;SDS011;12359;49.716;9.212;2023-11-19T06:02:13;0.20;;;0.20;;
24223;SDS011;12359;49.716;9.212;2023-11-19T06:04:39;0.20;;;0.20;;
24223;SDS011;12359;49.716;9.212;2023-11-19T06:07:05;0.20;;;0.20;;
24223;SDS011;12359;49.716;9.212;2023-11-19T06:09:30;0.20;;;0.20;;
24223;SDS011;12359;49.716;9.212;2023-11-19T06:11:58;0.17;;;0.17;;
24223;SDS011;12359;49.716;9.212;2023-11-19T06:14:26;0.20;;;0.20;;
24223;SDS011;12359;49.716;9.212;2023-11-19T06:16:52;0.20;;;0.20;;
24223;SDS011;12359;49.716;9.212;2023-11-19T06:19:18;0.17;;;0.17;;
24223;SDS011;12359;49.716;9.212;2023-11-19T06:21:44;0.20;;;0.20;;
24223;SDS011;12359;49.716;9.212;2023-11-19T06:24:09;0.10;;;0.10;;
24223;SDS011;12359;49.716;9.212;2023-11-19T06:26:35;0.13;;;0.13;;
24223;SDS011;12359;49.716;9.212;2023-11-19T06:29:01;0.20;;;0.20;;
24223;SDS011;12359;49.716;9.212;2023-11-19T06:31:26;0.20;;;0.20;;
24223;SDS011;12359;49.716;9.212;2023-11-19T06:33:52;0.20;;;0.20;;
24223;SDS011;12359;49.716;9.212;2023-11-19T06:36:18;0.10;;;0.10;;
24223;SDS011;12359;49.716;9.212;2023-11-19T06:38:44;0.10;;;0.10;;
24223;SDS011;12359;49.716;9.212;2023-11-19T06:41:09;0.10;;;0.10;;
24223;SDS011;12359;49.716;9.212;2023-11-19T06:43:36;0.20;;;0.20;;
24223;SDS011;12359;49.716;9.212;2023-11-19T06:46:02;0.13;;;0.13;;
24223;SDS011;12359;49.716;9.212;2023-11-19T06:48:30;0.20;;;0.20;;
24223;SDS011;12359;49.716;9.212;2023-11-19T06:50:59;0.20;;;0.20;;
24223;SDS011;12359;49.716;9.212;2023-11-19T06:53:25;0.10;;;0.10;;
24223;SDS011;12359;49.716;9.212;2023-11-19T06:55:53;0.20;;;0.20;;
24223;SDS011;12359;49.716;9.212;2023-11-19T06:58:19;0.20;;;0.20;;
24223;SDS011;12359;49.716;9.212;2023-11-19T07:00:44;0.20;;;0.20;;
24223;SDS011;12359;49.716;9.212;2023-11-19T07:03:12;0.20;;;0.20;;
24223;SDS011;12359;49.716;9.212;2023-11-19T07:05:38;0.10;;;0.10;;
24223;SDS011;12359;49.716;9.212;2023-11-19T07:08:05;0.20;;;0.20;;
24223;SDS011;12359;49.716;9.212;2023-11-19T07:10:32;0.20;;;0.20;;
24223;SDS011;12359;49.716;9.212;2023-11-19T07:12:58;0.17;;;0.17;;
24223;SDS011;12359;49.716;9.212;2023-11-19T07:15:24;0.10;;;0.10;;
24223;SDS011;12359;49.716;9.212;2023-11-19T07:17:50;0.10;;;0.10;;
24223;SDS011;12359;49.716;9.212;2023-11-19T07:20:15;0.20;;;0.20;;
24223;SDS011;12359;49.716;9.212;2023-11-19T07:22:44;0.20;;;0.20;;
24223;SDS011;12359;49.716;9.212;2023-11-19T07:25:13;0.10;;;0.10;;
24223;SDS011;12359;49.716;9.212;2023-11-19T07:27:39;0.10;;;0.10;;
24223;SDS011;12359;49.716;9.212;2023-11-19T07:30:05;0.10;;;0.10;;
24223;SDS011;12359;49.716;9.212;2023-11-19T07:32:32;0.20;;;0.20;;
24223;SDS011;12359;49.716;9.212;2023-11-19T07:34:58;0.10;;;0.10;;
24223;SDS011;12359;49.716;9.212;2023-11-19T07:37:24;0.20;;;0.20;;
24223;SDS011;12359;49.716;9.212;2023-11-19T07:39:50;0.10;;;0.10;;
24223;SDS011;12359;49.716;9.212;2023-11-19T07:42:16;0.10;;;0.10;;
24223;SDS011;12359;49.716;9.212;2023-11-19T07:44:42;0.10;;;0.10;;
24223;SDS011;12359;49.716;9.212;2023-11-19T07:47:09;0.10;;;0.10;;
24223;SDS011;12359;49.716;9.212;2023-11-19T07:49:35;0.20;;;0.20;;
24223;SDS011;12359;49.716;9.212;2023-11-19T07:52:00;0.10;;;0.10;;
24223;SDS011;12359;49.716;9.212;2023-11-19T07:54:28;0.20;;;0.20;;
24223;SDS011;12359;49.716;9.212;2023-11-19T07:56:54;0.10;;;0.10;;
24223;SDS011;12359;49.716;9.212;2023-11-19T07:59:20;0.15;;;0.15;;
24223;SDS011;12359;49.716;9.212;2023-11-19T08:01:46;0.13;;;0.13;;
24223;SDS011;12359;49.716;9.212;2023-11-19T08:04:12;0.10;;;0.10;;
24223;SDS011;12359;49.716;9.212;2023-11-19T08:06:38;0.10;;;0.10;;
24223;SDS011;12359;49.716;9.212;2023-11-19T08:09:04;0.10;;;0.10;;
24223;SDS011;12359;49.716;9.212;2023-11-19T08:11:31;0.10;;;0.10;;
24223;SDS011;12359;49.716;9.212;2023-11-19T08:13:57;0.10;;;0.10;;
24223;SDS011;12359;49.716;9.212;2023-11-19T08:16:23;0.10;;;0.10;;
24223;SDS011;12359;49.716;9.212;2023-11-19T08:18:49;0.10;;;0.10;;
24223;SDS011;12359;49.716;9.212;2023-11-19T08:21:14;0.10;;;0.10;;
24223;SDS011;12359;49.716;9.212;2023-11-19T08:23:40;0.10;;;0.10;;
24223;SDS011;12359;49.716;9.212;2023-11-19T08:26:06;0.10;;;0.10;;
24223;SDS011;12359;49.716;9.212;2023-11-19T08:28:31;0.10;;;0.10;;
24223;SDS011;12359;49.716;9.212;2023-11-19T08:30:59;0.10;;;0.10;;
24223;SDS011;12359;49.716;9.212;2023-11-19T08:33:26;0.10;;;0.10;;
24223;SDS011;12359;49.716;9.212;2023-11-19T08:35:52;0.10;;;0.10;;
24223;SDS011;12359;49.716;9.212;2023-11-19T08:38:17;0.10;;;0.10;;
24223;SDS011;12359;49.716;9.212;2023-11-19T08:40:43;0.10;;;0.10;;
24223;SDS011;12359;49.716;9.212;2023-11-19T08:43:09;0.10;;;0.10;;
24223;SDS011;12359;49.716;9.212;2023-11-19T08:45:35;0.10;;;0.10;;
24223;SDS011;12359;49.716;9.212;2023-11-19T08:48:01;0.10;;;0.10;;
24223;SDS011;12359;49.716;9.212;2023-11-19T08:50:27;0.10;;;0.10;;
24223;SDS011;12359;49.716;9.212;2023-11-19T08:52:52;0.05;;;0.05;;
24223;SDS011;12359;49.716;9.212;2023-11-19T08:55:18;0.10;;;0.10;;
24223;SDS011;12359;49.716;9.212;2023-11-19T08:57:44;0.00;;;0.00;;
24223;SDS011;12359;49.716;9.212;2023-11-19T09:00:10;0.00;;;0.00;;
24223;SDS011;12359;49.716;9.212;2023-11-19T09:02:39;0.00;;;0.00;;
24223;SDS011;12359;49.716;9.212;2023-11-19T09:05:05;0.00;;;0.00;;
24223;SDS011;12359;49.716;9.212;2023-11-19T09:07:32;0.00;;;0.00;;
24223;SDS011;12359;49.716;9.212;2023-11-19T09:09:58;0.00;;;0.00;;
24223;SDS011;12359;49.716;9.212;2023-11-19T09:12:24;0.00;;;0.00;;
24223;SDS011;12359;49.716;9.212;2023-11-19T09:14:49;0.00;;;0.00;;
24223;SDS011;12359;49.716;9.212;2023-11-19T09:17:15;0.00;;;0.00;;
24223;SDS011;12359;49.716;9.212;2023-11-19T09:19:42;0.00;;;0.00;;
24223;SDS011;12359;49.716;9.212;2023-11-19T09:22:08;0.03;;;0.03;;
24223;SDS011;12359;49.716;9.212;2023-11-19T09:24:33;0.10;;;0.10;;
24223;SDS011;12359;49.716;9.212;2023-11-19T09:26:59;0.10;;;0.10;;
24223;SDS011;12359;49.716;9.212;2023-11-19T09:29:25;0.10;;;0.10;;
24223;SDS011;12359;49.716;9.212;2023-11-19T09:31:51;0.10;;;0.10;;
24223;SDS011;12359;49.716;9.212;2023-11-19T09:34:16;0.10;;;0.10;;
24223;SDS011;12359;49.716;9.212;2023-11-19T09:36:42;0.10;;;0.10;;
24223;SDS011;12359;49.716;9.212;2023-11-19T09:39:12;0.10;;;0.10;;
24223;SDS011;12359;49.716;9.212;2023-11-19T09:41:42;0.10;;;0.10;;
24223;SDS011;12359;49.716;9.212;2023-11-19T09:44:11;0.10;;;0.10;;
24223;SDS011;12359;49.716;9.212;2023-11-19T09:46:41;0.10;;;0.10;;
24223;SDS011;12359;49.716;9.212;2023-11-19T09:49:07;0.10;;;0.10;;
24223;SDS011;12359;49.716;9.212;2023-11-19T09:51:38;0.10;;;0.10;;
24223;SDS011;12359;49.716;9.212;2023-11-19T09:54:03;0.10;;;0.10;;
24223;SDS011;12359;49.716;9.212;2023-11-19T09:56:29;0.10;;;0.10;;
24223;SDS011;12359;49.716;9.212;2023-11-19T09:58:58;0.00;;;0.00;;
24223;SDS011;12359;49.716;9.212;2023-11-19T10:01:24;0.10;;;0.10;;
24223;SDS011;12359;49.716;9.212;2023-11-19T10:03:50;0.10;;;0.10;;
24223;SDS011;12359;49.716;9.212;2023-11-19T10:06:20;0.10;;;0.10;;
24223;SDS011;12359;49.716;9.212;2023-11-19T10:08:46;0.10;;;0.10;;
24223;SDS011;12359;49.716;9.212;2023-11-19T10:11:12;0.10;;;0.10;;
24223;SDS011;12359;49.716;9.212;2023-11-19T10:13:38;0.10;;;0.10;;
24223;SDS011;12359;49.716;9.212;2023-11-19T10:16:08;0.10;;;0.10;;
24223;SDS011;12359;49.716;9.212;2023-11-19T10:18:36;0.10;;;0.10;;
24223;SDS011;12359;49.716;9.212;2023-11-19T10:21:06;0.10;;;0.10;;
24223;SDS011;12359;49.716;9.212;2023-11-19T10:23:47;0.10;;;0.10;;
24223;SDS011;12359;49.716;9.212;2023-11-19T10:26:23;0.10;;;0.10;;
24223;SDS011;12359;49.716;9.212;2023-11-19T10:28:49;0.10;;;0.10;;
24223;SDS011;12359;49.716;9.212;2023-11-19T10:31:15;0.10;;;0.10;;
24223;SDS011;12359;49.716;9.212;2023-11-19T10:33:43;0.10;;;0.10;;
24223;SDS011;12359;49.716;9.212;2023-11-19T10:36:12;0.10;;;0.10;;
24223;SDS011;12359;49.716;9.212;2023-11-19T10:38:39;0.10;;;0.10;;
24223;SDS011;12359;49.716;9.212;2023-11-19T10:41:06;0.10;;;0.10;;
24223;SDS011;12359;49.716;9.212;2023-11-19T10:43:32;0.10;;;0.10;;
24223;SDS011;12359;49.716;9.212;2023-11-19T10:46:10;0.10;;;0.10;;
24223;SDS011;12359;49.716;9.212;2023-11-19T10:48:38;0.10;;;0.10;;
24223;SDS011;12359;49.716;9.212;2023-11-19T10:51:04;0.10;;;0.10;;
24223;SDS011;12359;49.716;9.212;2023-11-19T10:53:36;0.10;;;0.10;;
24223;SDS011;12359;49.716;9.212;2023-11-19T10:56:04;0.10;;;0.10;;
24223;SDS011;12359;49.716;9.212;2023-11-19T10:58:35;0.10;;;0.10;;
24223;SDS011;12359;49.716;9.212;2023-11-19T11:01:08;0.10;;;0.10;;
24223;SDS011;12359;49.716;9.212;2023-11-19T11:03:39;0.10;;;0.10;;
24223;SDS011;12359;49.716;9.212;2023-11-19T11:06:05;0.10;;;0.10;;
24223;SDS011;12359;49.716;9.212;2023-11-19T11:08:32;0.10;;;0.10;;
24223;SDS011;12359;49.716;9.212;2023-11-19T11:11:02;0.10;;;0.10;;
24223;SDS011;12359;49.716;9.212;2023-11-19T11:13:29;0.10;;;0.10;;
24223;SDS011;12359;49.716;9.212;2023-11-19T11:15:57;0.10;;;0.10;;
24223;SDS011;12359;49.716;9.212;2023-11-19T11:18:23;0.10;;;0.10;;
24223;SDS011;12359;49.716;9.212;2023-11-19T11:21:09;0.10;;;0.10;;
24223;SDS011;12359;49.716;9.212;2023-11-19T11:40:14;0.10;;;0.10;;
24223;SDS011;12359;49.716;9.212;2023-11-19T11:42:41;0.10;;;0.10;;
24223;SDS011;12359;49.716;9.212;2023-11-19T11:55:28;0.10;;;0.10;;
24223;SDS011;12359;49.716;9.212;2023-11-19T11:57:59;0.10;;;0.10;;
24223;SDS011;12359;49.716;9.212;2023-11-19T12:00:38;0.10;;;0.10;;
24223;SDS011;12359;49.716;9.212;2023-11-19T12:03:06;0.10;;;0.10;;
24223;SDS011;12359;49.716;9.212;2023-11-19T12:05:33;0.10;;;0.10;;
24223;SDS011;12359;49.716;9.212;2023-11-19T12:08:25;0.10;;;0.10;;
24223;SDS011;12359;49.716;9.212;2023-11-19T12:10:55;0.10;;;0.10;;
24223;SDS011;12359;49.716;9.212;2023-11-19T12:13:29;0.10;;;0.10;;
24223;SDS011;12359;49.716;9.212;2023-11-19T12:16:12;0.10;;;0.10;;
24223;SDS011;12359;49.716;9.212;2023-11-19T12:18:38;0.10;;;0.10;;
24223;SDS011;12359;49.716;9.212;2023-11-19T12:21:05;0.10;;;0.10;;
24223;SDS011;12359;49.716;9.212;2023-11-19T12:23:34;0.10;;;0.10;;
24223;SDS011;12359;49.716;9.212;2023-11-19T12:26:00;0.10;;;0.10;;
24223;SDS011;12359;49.716;9.212;2023-11-19T12:28:26;0.10;;;0.10;;
24223;SDS011;12359;49.716;9.212;2023-11-19T12:30:52;0.10;;;0.10;;
24223;SDS011;12359;49.716;9.212;2023-11-19T12:33:19;0.10;;;0.10;;
24223;SDS011;12359;49.716;9.212;2023-11-19T12:35:45;0.10;;;0.10;;
24223;SDS011;12359;49.716;9.212;2023-11-19T12:38:18;0.10;;;0.10;;
24223;SDS011;12359;49.716;9.212;2023-11-19T12:40:45;0.10;;;0.10;;
24223;SDS011;12359;49.716;9.212;2023-11-19T12:43:21;0.10;;;0.10;;
24223;SDS011;12359;49.716;9.212;2023-11-19T12:45:50;0.10;;;0.10;;
24223;SDS011;12359;49.716;9.212;2023-11-19T12:48:15;0.10;;;0.10;;
24223;SDS011;12359;49.716;9.212;2023-11-19T12:50:57;0.10;;;0.10;;
24223;SDS011;12359;49.716;9.212;2023-11-19T12:53:25;0.10;;;0.10;;
24223;SDS011;12359;49.716;9.212;2023-11-19T12:55:52;0.10;;;0.10;;
24223;SDS011;12359;49.716;9.212;2023-11-19T12:58:31;0.10;;;0.10;;
24223;SDS011;12359;49.716;9.212;2023-11-19T13:01:05;0.10;;;0.10;;
24223;SDS011;12359;49.716;9.212;2023-11-19T13:03:32;0.10;;;0.10;;
24223;SDS011;12359;49.716;9.212;2023-11-19T13:06:02;0.10;;;0.10;;
24223;SDS011;12359;49.716;9.212;2023-11-19T13:11:09;0.10;;;0.10;;
24223;SDS011;12359;49.716;9.212;2023-11-19T13:16:20;0.10;;;0.10;;
24223;SDS011;12359;49.716;9.212;2023-11-19T13:18:46;0.10;;;0.10;;
24223;SDS011;12359;49.716;9.212;2023-11-19T13:21:12;0.10;;;0.10;;
24223;SDS011;12359;49.716;9.212;2023-11-19T13:23:38;0.10;;;0.10;;
24223;SDS011;12359;49.716;9.212;2023-11-19T13:26:04;0.10;;;0.10;;
24223;SDS011;12359;49.716;9.212;2023-11-19T13:28:29;0.10;;;0.10;;
24223;SDS011;12359;49.716;9.212;2023-11-19T13:30:56;0.10;;;0.10;;
24223;SDS011;12359;49.716;9.212;2023-11-19T13:33:21;0.10;;;0.10;;
24223;SDS011;12359;49.716;9.212;2023-11-19T13:35:47;0.10;;;0.10;;
24223;SDS011;12359;49.716;9.212;2023-11-19T13:38:12;0.10;;;0.10;;
24223;SDS011;12359;49.716;9.212;2023-11-19T13:40:38;0.10;;;0.10;;
24223;SDS011;12359;49.716;9.212;2023-11-19T13:43:04;0.15;;;0.15;;
24223;SDS011;12359;49.716;9.212;2023-11-19T13:45:30;0.10;;;0.10;;
24223;SDS011;12359;49.716;9.212;2023-11-19T13:47:56;0.10;;;0.10;;
24223;SDS011;12359;49.716;9.212;2023-11-19T13:50:21;0.10;;;0.10;;
24223;SDS011;12359;49.716;9.212;2023-11-19T13:52:48;0.10;;;0.10;;
24223;SDS011;12359;49.716;9.212;2023-11-19T13:55:14;0.10;;;0.10;;
24223;SDS011;12359;49.716;9.212;2023-11-19T13:57:40;0.10;;;0.10;;
24223;SDS011;12359;49.716;9.212;2023-11-19T14:00:07;0.10;;;0.10;;
24223;SDS011;12359;49.716;9.212;2023-11-19T14:02:48;0.20;;;0.20;;
24223;SDS011;12359;49.716;9.212;2023-11-19T14:05:14;0.10;;;0.10;;
24223;SDS011;12359;49.716;9.212;2023-11-19T14:07:43;0.10;;;0.10;;
24223;SDS011;12359;49.716;9.212;2023-11-19T14:10:10;0.10;;;0.10;;
24223;SDS011;12359;49.716;9.212;2023-11-19T14:12:36;0.10;;;0.10;;
24223;SDS011;12359;49.716;9.212;2023-11-19T14:15:03;0.10;;;0.10;;
24223;SDS011;12359;49.716;9.212;2023-11-19T14:17:31;0.10;;;0.10;;
24223;SDS011;12359;49.716;9.212;2023-11-19T14:19:57;0.10;;;0.10;;
24223;SDS011;12359;49.716;9.212;2023-11-19T14:22:23;0.20;;;0.20;;
24223;SDS011;12359;49.716;9.212;2023-11-19T14:24:49;0.10;;;0.10;;
24223;SDS011;12359;49.716;9.212;2023-11-19T14:27:15;0.10;;;0.10;;
24223;SDS011;12359;49.716;9.212;2023-11-19T14:29:44;0.10;;;0.10;;
24223;SDS011;12359;49.716;9.212;2023-11-19T14:32:10;0.10;;;0.10;;
24223;SDS011;12359;49.716;9.212;2023-11-19T14:34:36;0.10;;;0.10;;
24223;SDS011;12359;49.716;9.212;2023-11-19T14:37:02;0.10;;;0.10;;
24223;SDS011;12359;49.716;9.212;2023-11-19T14:39:28;0.13;;;0.13;;
24223;SDS011;12359;49.716;9.212;2023-11-19T14:41:57;0.10;;;0.10;;
24223;SDS011;12359;49.716;9.212;2023-11-19T14:44:26;0.10;;;0.10;;
24223;SDS011;12359;49.716;9.212;2023-11-19T14:46:52;0.10;;;0.10;;
24223;SDS011;12359;49.716;9.212;2023-11-19T14:49:18;0.10;;;0.10;;
24223;SDS011;12359;49.716;9.212;2023-11-19T14:51:43;0.10;;;0.10;;
24223;SDS011;12359;49.716;9.212;2023-11-19T14:54:09;0.10;;;0.10;;
24223;SDS011;12359;49.716;9.212;2023-11-19T14:56:35;0.10;;;0.10;;
24223;SDS011;12359;49.716;9.212;2023-11-19T14:59:00;0.10;;;0.10;;
24223;SDS011;12359;49.716;9.212;2023-11-19T15:01:26;0.10;;;0.10;;
24223;SDS011;12359;49.716;9.212;2023-11-19T15:03:53;0.10;;;0.10;;
24223;SDS011;12359;49.716;9.212;2023-11-19T15:06:22;0.10;;;0.10;;
24223;SDS011;12359;49.716;9.212;2023-11-19T15:08:49;0.10;;;0.10;;
24223;SDS011;12359;49.716;9.212;2023-11-19T15:11:15;0.10;;;0.10;;
24223;SDS011;12359;49.716;9.212;2023-11-19T15:13:40;0.15;;;0.15;;
24223;SDS011;12359;49.716;9.212;2023-11-19T15:16:07;0.10;;;0.10;;
24223;SDS011;12359;49.716;9.212;2023-11-19T15:18:36;0.10;;;0.10;;
24223;SDS011;12359;49.716;9.212;2023-11-19T15:21:03;0.10;;;0.10;;